sensor_id;sensor_type;location;lat;lon;timestamp;temperature;humidity
14761;DHT22;7472;45.396;5.272;2023-12-22T03:49:11;8.00;99.90
14761;DHT22;7472;45.396;5.272;2023-12-22T04:53:09;7.90;99.90
14761;DHT22;7472;45.396;5.272;2023-12-22T04:55:36;7.80;99.90
14761;DHT22;7472;45.396;5.272;2023-12-22T04:58:05;7.80;99.90
14761;DHT22;7472;45.396;5.272;2023-12-22T05:00:32;7.80;99.90
14761;DHT22;7472;45.396;5.272;2023-12-22T05:02:59;7.80;99.90
14761;DHT22;7472;45.396;5.272;2023-12-22T05:05:26;7.80;99.90
14761;DHT22;7472;45.396;5.272;2023-12-22T05:07:53;7.80;99.90
14761;DHT22;7472;45.396;5.272;2023-12-22T05:10:20;7.80;99.90
14761;DHT22;7472;45.396;5.272;2023-12-22T05:12:48;7.80;99.90
14761;DHT22;7472;45.396;5.272;2023-12-22T05:15:16;7.80;99.90
14761;DHT22;7472;45.396;5.272;2023-12-22T05:17:43;7.80;99.90
14761;DHT22;7472;45.396;5.272;2023-12-22T05:20:11;7.80;99.90
14761;DHT22;7472;45.396;5.272;2023-12-22T05:22:38;7.80;99.90
14761;DHT22;7472;45.396;5.272;2023-12-22T05:25:06;7.80;99.90
14761;DHT22;7472;45.396;5.272;2023-12-22T05:27:35;7.80;99.90
14761;DHT22;7472;45.396;5.272;2023-12-22T05:30:03;7.80;99.90
14761;DHT22;7472;45.396;5.272;2023-12-22T05:32:32;7.70;99.90
14761;DHT22;7472;45.396;5.272;2023-12-22T05:34:59;7.70;99.90
14761;DHT22;7472;45.396;5.272;2023-12-22T05:37:26;7.70;99.90
14761;DHT22;7472;45.396;5.272;2023-12-22T05:39:54;7.70;99.90
14761;DHT22;7472;45.396;5.272;2023-12-22T05:42:21;7.70;99.90
14761;DHT22;7472;45.396;5.272;2023-12-22T05:44:48;7.70;99.90
14761;DHT22;7472;45.396;5.272;2023-12-22T05:47:15;7.70;99.90
14761;DHT22;7472;45.396;5.272;2023-12-22T05:49:44;7.70;99.90
14761;DHT22;7472;45.396;5.272;2023-12-22T05:52:12;7.70;99.90
14761;DHT22;7472;45.396;5.272;2023-12-22T05:54:39;7.70;99.90
14761;DHT22;7472;45.396;5.272;2023-12-22T05:57:06;7.70;99.90
14761;DHT22;7472;45.396;5.272;2023-12-22T05:59:33;7.70;99.90
14761;DHT22;7472;45.396;5.272;2023-12-22T06:02:01;7.70;99.90
14761;DHT22;7472;45.396;5.272;2023-12-22T06:04:28;7.70;99.90
14761;DHT22;7472;45.396;5.272;2023-12-22T06:06:57;7.70;99.90
14761;DHT22;7472;45.396;5.272;2023-12-22T06:09:24;7.70;99.90
14761;DHT22;7472;45.396;5.272;2023-12-22T06:11:51;7.80;99.90
14761;DHT22;7472;45.396;5.272;2023-12-22T06:14:19;7.70;99.90
14761;DHT22;7472;45.396;5.272;2023-12-22T06:16:46;7.70;99.90
14761;DHT22;7472;45.396;5.272;2023-12-22T06:19:13;7.70;99.90
14761;DHT22;7472;45.396;5.272;2023-12-22T06:21:40;7.70;99.90
14761;DHT22;7472;45.396;5.272;2023-12-22T06:24:09;7.70;99.90
14761;DHT22;7472;45.396;5.272;2023-12-22T06:26:36;7.70;99.90
14761;DHT22;7472;45.396;5.272;2023-12-22T06:29:03;7.70;99.90
14761;DHT22;7472;45.396;5.272;2023-12-22T06:31:31;7.70;99.90
14761;DHT22;7472;45.396;5.272;2023-12-22T06:33:58;7.70;99.90
14761;DHT22;7472;45.396;5.272;2023-12-22T06:36:28;7.70;99.90
14761;DHT22;7472;45.396;5.272;2023-12-22T06:38:56;7.70;99.90
14761;DHT22;7472;45.396;5.272;2023-12-22T06:41:27;7.70;99.90
14761;DHT22;7472;45.396;5.272;2023-12-22T06:43:54;7.70;99.90
14761;DHT22;7472;45.396;5.272;2023-12-22T06:46:23;7.70;99.90
14761;DHT22;7472;45.396;5.272;2023-12-22T06:48:52;7.70;99.90
14761;DHT22;7472;45.396;5.272;2023-12-22T06:51:20;7.70;99.90
14761;DHT22;7472;45.396;5.272;2023-12-22T06:53:48;7.70;99.90
14761;DHT22;7472;45.396;5.272;2023-12-22T06:56:17;7.70;99.90
14761;DHT22;7472;45.396;5.272;2023-12-22T06:58:46;7.70;99.90
14761;DHT22;7472;45.396;5.272;2023-12-22T07:01:18;7.70;99.90
14761;DHT22;7472;45.396;5.272;2023-12-22T07:03:46;7.70;99.90
14761;DHT22;7472;45.396;5.272;2023-12-22T07:06:14;7.70;99.90
14761;DHT22;7472;45.396;5.272;2023-12-22T07:08:42;7.70;99.90
14761;DHT22;7472;45.396;5.272;2023-12-22T07:11:09;7.70;99.90
14761;DHT22;7472;45.396;5.272;2023-12-22T07:13:36;7.70;99.90
14761;DHT22;7472;45.396;5.272;2023-12-22T07:16:05;7.70;99.90
14761;DHT22;7472;45.396;5.272;2023-12-22T07:18:37;7.70;99.90
14761;DHT22;7472;45.396;5.272;2023-12-22T07:21:05;7.70;99.90
14761;DHT22;7472;45.396;5.272;2023-12-22T07:23:32;7.70;99.90
14761;DHT22;7472;45.396;5.272;2023-12-22T07:25:59;7.70;99.90
14761;DHT22;7472;45.396;5.272;2023-12-22T07:28:26;7.70;99.90
14761;DHT22;7472;45.396;5.272;2023-12-22T07:30:54;7.70;99.90
14761;DHT22;7472;45.396;5.272;2023-12-22T07:33:23;7.70;99.90
14761;DHT22;7472;45.396;5.272;2023-12-22T07:35:50;7.70;99.90
14761;DHT22;7472;45.396;5.272;2023-12-22T07:38:17;7.70;99.90
14761;DHT22;7472;45.396;5.272;2023-12-22T07:40:44;7.70;99.90
14761;DHT22;7472;45.396;5.272;2023-12-22T07:43:12;7.80;99.90
14761;DHT22;7472;45.396;5.272;2023-12-22T07:45:40;7.80;99.90
14761;DHT22;7472;45.396;5.272;2023-12-22T07:48:07;7.80;99.90
14761;DHT22;7472;45.396;5.272;2023-12-22T07:50:36;7.80;99.90
14761;DHT22;7472;45.396;5.272;2023-12-22T07:53:03;7.90;99.90
14761;DHT22;7472;45.396;5.272;2023-12-22T07:55:30;7.90;99.90
14761;DHT22;7472;45.396;5.272;2023-12-22T07:57:57;7.90;99.90
14761;DHT22;7472;45.396;5.272;2023-12-22T08:00:24;8.00;99.90
14761;DHT22;7472;45.396;5.272;2023-12-22T08:02:51;8.00;99.90
14761;DHT22;7472;45.396;5.272;2023-12-22T08:05:19;8.00;99.90
14761;DHT22;7472;45.396;5.272;2023-12-22T08:07:47;8.00;99.90
14761;DHT22;7472;45.396;5.272;2023-12-22T08:10:14;8.00;99.90
14761;DHT22;7472;45.396;5.272;2023-12-22T08:12:42;8.00;99.90
14761;DHT22;7472;45.396;5.272;2023-12-22T08:15:09;8.10;99.90
14761;DHT22;7472;45.396;5.272;2023-12-22T08:17:39;8.00;99.90
14761;DHT22;7472;45.396;5.272;2023-12-22T08:20:16;8.00;99.90
14761;DHT22;7472;45.396;5.272;2023-12-22T08:22:45;8.00;99.90
14761;DHT22;7472;45.396;5.272;2023-12-22T08:25:13;8.00;99.90
14761;DHT22;7472;45.396;5.272;2023-12-22T08:27:41;8.10;99.90
14761;DHT22;7472;45.396;5.272;2023-12-22T08:30:09;8.20;99.90
14761;DHT22;7472;45.396;5.272;2023-12-22T08:32:36;8.20;99.90
14761;DHT22;7472;45.396;5.272;2023-12-22T08:35:04;8.30;99.90
14761;DHT22;7472;45.396;5.272;2023-12-22T08:37:31;8.30;99.90
14761;DHT22;7472;45.396;5.272;2023-12-22T08:39:59;8.50;99.90
14761;DHT22;7472;45.396;5.272;2023-12-22T08:42:29;8.50;99.90
14761;DHT22;7472;45.396;5.272;2023-12-22T08:44:56;8.50;99.90
14761;DHT22;7472;45.396;5.272;2023-12-22T08:47:23;8.50;99.90
14761;DHT22;7472;45.396;5.272;2023-12-22T08:49:51;8.50;99.90
14761;DHT22;7472;45.396;5.272;2023-12-22T08:52:18;8.50;99.90
14761;DHT22;7472;45.396;5.272;2023-12-22T08:54:45;8.50;99.90
14761;DHT22;7472;45.396;5.272;2023-12-22T08:57:12;8.50;99.90
14761;DHT22;7472;45.396;5.272;2023-12-22T08:59:41;8.50;99.90
14761;DHT22;7472;45.396;5.272;2023-12-22T09:02:08;8.50;99.90
14761;DHT22;7472;45.396;5.272;2023-12-22T09:04:35;8.60;99.90
14761;DHT22;7472;45.396;5.272;2023-12-22T09:07:02;8.60;99.90
14761;DHT22;7472;45.396;5.272;2023-12-22T09:09:29;8.70;99.90
14761;DHT22;7472;45.396;5.272;2023-12-22T09:11:59;8.70;99.90
14761;DHT22;7472;45.396;5.272;2023-12-22T09:14:26;8.70;99.90
14761;DHT22;7472;45.396;5.272;2023-12-22T09:16:56;8.80;99.90
14761;DHT22;7472;45.396;5.272;2023-12-22T09:19:23;8.80;99.90
14761;DHT22;7472;45.396;5.272;2023-12-22T09:21:50;8.80;99.90
14761;DHT22;7472;45.396;5.272;2023-12-22T09:24:17;8.80;99.90
14761;DHT22;7472;45.396;5.272;2023-12-22T09:26:44;8.90;99.90
14761;DHT22;7472;45.396;5.272;2023-12-22T09:29:11;8.90;99.90
14761;DHT22;7472;45.396;5.272;2023-12-22T09:31:38;8.90;99.90
14761;DHT22;7472;45.396;5.272;2023-12-22T09:34:08;8.90;99.90
14761;DHT22;7472;45.396;5.272;2023-12-22T09:36:35;8.90;99.90
14761;DHT22;7472;45.396;5.272;2023-12-22T09:39:02;8.90;99.90
14761;DHT22;7472;45.396;5.272;2023-12-22T09:41:29;8.90;99.90
14761;DHT22;7472;45.396;5.272;2023-12-22T09:43:57;8.90;99.90
14761;DHT22;7472;45.396;5.272;2023-12-22T09:46:25;8.90;99.90
14761;DHT22;7472;45.396;5.272;2023-12-22T09:48:53;8.80;99.90
14761;DHT22;7472;45.396;5.272;2023-12-22T09:51:23;8.80;99.90
14761;DHT22;7472;45.396;5.272;2023-12-22T09:53:51;8.80;99.90
14761;DHT22;7472;45.396;5.272;2023-12-22T09:56:19;8.80;99.90
14761;DHT22;7472;45.396;5.272;2023-12-22T09:58:47;8.90;99.90
14761;DHT22;7472;45.396;5.272;2023-12-22T10:01:16;8.80;99.90
14761;DHT22;7472;45.396;5.272;2023-12-22T10:03:47;9.00;99.90
14761;DHT22;7472;45.396;5.272;2023-12-22T10:06:14;9.10;99.90
14761;DHT22;7472;45.396;5.272;2023-12-22T10:08:45;9.20;99.90
14761;DHT22;7472;45.396;5.272;2023-12-22T10:11:13;9.50;99.90
14761;DHT22;7472;45.396;5.272;2023-12-22T10:13:42;9.20;99.90
14761;DHT22;7472;45.396;5.272;2023-12-22T10:16:09;9.10;99.90
14761;DHT22;7472;45.396;5.272;2023-12-22T10:18:36;9.10;99.90
14761;DHT22;7472;45.396;5.272;2023-12-22T10:21:04;9.10;99.90
14761;DHT22;7472;45.396;5.272;2023-12-22T10:23:31;9.10;99.90
14761;DHT22;7472;45.396;5.272;2023-12-22T10:25:59;9.00;99.90
14761;DHT22;7472;45.396;5.272;2023-12-22T10:28:27;9.10;99.90
14761;DHT22;7472;45.396;5.272;2023-12-22T10:30:55;9.10;99.90
14761;DHT22;7472;45.396;5.272;2023-12-22T10:33:25;9.10;99.90
14761;DHT22;7472;45.396;5.272;2023-12-22T10:35:54;9.10;99.90
14761;DHT22;7472;45.396;5.272;2023-12-22T10:38:21;9.10;99.90
14761;DHT22;7472;45.396;5.272;2023-12-22T10:40:49;9.20;99.90
14761;DHT22;7472;45.396;5.272;2023-12-22T10:43:17;9.20;99.90
14761;DHT22;7472;45.396;5.272;2023-12-22T10:45:45;9.10;99.90
14761;DHT22;7472;45.396;5.272;2023-12-22T10:48:12;9.00;99.90
14761;DHT22;7472;45.396;5.272;2023-12-22T10:50:40;8.90;99.90
14761;DHT22;7472;45.396;5.272;2023-12-22T10:53:07;8.80;99.90
14761;DHT22;7472;45.396;5.272;2023-12-22T10:55:34;8.70;99.90
14761;DHT22;7472;45.396;5.272;2023-12-22T10:58:03;8.70;99.90
14761;DHT22;7472;45.396;5.272;2023-12-22T11:00:32;8.70;99.90
14761;DHT22;7472;45.396;5.272;2023-12-22T11:03:02;8.60;99.90
14761;DHT22;7472;45.396;5.272;2023-12-22T11:05:33;8.50;99.90
14761;DHT22;7472;45.396;5.272;2023-12-22T11:08:00;8.50;99.90
14761;DHT22;7472;45.396;5.272;2023-12-22T11:10:30;8.50;99.90
14761;DHT22;7472;45.396;5.272;2023-12-22T11:12:58;8.50;99.90
14761;DHT22;7472;45.396;5.272;2023-12-22T11:15:26;8.50;99.90
14761;DHT22;7472;45.396;5.272;2023-12-22T11:17:56;8.50;99.90
14761;DHT22;7472;45.396;5.272;2023-12-22T11:20:25;8.40;99.90
14761;DHT22;7472;45.396;5.272;2023-12-22T11:22:53;8.40;99.90
14761;DHT22;7472;45.396;5.272;2023-12-22T11:25:22;8.40;99.90
14761;DHT22;7472;45.396;5.272;2023-12-22T11:27:52;8.40;99.90
14761;DHT22;7472;45.396;5.272;2023-12-22T11:30:20;8.40;99.90
14761;DHT22;7472;45.396;5.272;2023-12-22T11:32:49;8.40;99.90
14761;DHT22;7472;45.396;5.272;2023-12-22T11:35:18;8.50;99.90
14761;DHT22;7472;45.396;5.272;2023-12-22T11:37:45;8.50;99.90
14761;DHT22;7472;45.396;5.272;2023-12-22T11:40:13;8.40;99.90
14761;DHT22;7472;45.396;5.272;2023-12-22T11:42:43;8.50;99.90
14761;DHT22;7472;45.396;5.272;2023-12-22T11:45:11;8.50;99.90
14761;DHT22;7472;45.396;5.272;2023-12-22T11:47:39;8.50;99.90
14761;DHT22;7472;45.396;5.272;2023-12-22T11:50:09;8.40;99.90
14761;DHT22;7472;45.396;5.272;2023-12-22T11:52:38;8.50;99.90
14761;DHT22;7472;45.396;5.272;2023-12-22T11:55:05;8.50;99.90
14761;DHT22;7472;45.396;5.272;2023-12-22T11:57:34;8.40;99.90
14761;DHT22;7472;45.396;5.272;2023-12-22T12:00:05;8.40;99.90
14761;DHT22;7472;45.396;5.272;2023-12-22T12:02:33;8.50;99.90
14761;DHT22;7472;45.396;5.272;2023-12-22T12:05:04;8.60;99.90
14761;DHT22;7472;45.396;5.272;2023-12-22T12:07:42;8.60;99.90
14761;DHT22;7472;45.396;5.272;2023-12-22T12:10:12;8.50;99.90
14761;DHT22;7472;45.396;5.272;2023-12-22T12:12:40;8.60;99.90
14761;DHT22;7472;45.396;5.272;2023-12-22T12:15:09;8.60;99.90
14761;DHT22;7472;45.396;5.272;2023-12-22T12:17:40;8.60;99.90
14761;DHT22;7472;45.396;5.272;2023-12-22T12:20:08;8.50;99.90
14761;DHT22;7472;45.396;5.272;2023-12-22T12:22:36;8.50;99.90
14761;DHT22;7472;45.396;5.272;2023-12-22T12:25:08;8.50;99.90
14761;DHT22;7472;45.396;5.272;2023-12-22T12:27:37;8.60;99.90
14761;DHT22;7472;45.396;5.272;2023-12-22T12:30:11;8.60;99.90
14761;DHT22;7472;45.396;5.272;2023-12-22T12:32:40;8.50;99.90
14761;DHT22;7472;45.396;5.272;2023-12-22T12:35:08;8.50;99.90
14761;DHT22;7472;45.396;5.272;2023-12-22T12:37:36;8.50;99.90
14761;DHT22;7472;45.396;5.272;2023-12-22T12:40:09;8.50;99.90
14761;DHT22;7472;45.396;5.272;2023-12-22T12:42:38;8.50;99.90
14761;DHT22;7472;45.396;5.272;2023-12-22T12:45:06;8.60;99.90
14761;DHT22;7472;45.396;5.272;2023-12-22T12:47:34;8.60;99.90
14761;DHT22;7472;45.396;5.272;2023-12-22T12:50:01;8.50;99.90
14761;DHT22;7472;45.396;5.272;2023-12-22T12:57:27;8.30;99.90
14761;DHT22;7472;45.396;5.272;2023-12-22T12:59:54;8.50;99.90
14761;DHT22;7472;45.396;5.272;2023-12-22T13:02:21;8.50;99.90
14761;DHT22;7472;45.396;5.272;2023-12-22T13:04:49;8.50;99.90
14761;DHT22;7472;45.396;5.272;2023-12-22T13:07:25;8.60;99.90
14761;DHT22;7472;45.396;5.272;2023-12-22T13:09:53;8.60;99.90
14761;DHT22;7472;45.396;5.272;2023-12-22T13:12:23;8.60;99.90
14761;DHT22;7472;45.396;5.272;2023-12-22T13:14:52;8.60;99.90
14761;DHT22;7472;45.396;5.272;2023-12-22T13:17:20;8.60;99.90
14761;DHT22;7472;45.396;5.272;2023-12-22T13:19:47;8.60;99.90
14761;DHT22;7472;45.396;5.272;2023-12-22T13:22:15;8.60;99.90
14761;DHT22;7472;45.396;5.272;2023-12-22T13:24:55;8.60;99.90
14761;DHT22;7472;45.396;5.272;2023-12-22T13:27:22;8.60;99.90
14761;DHT22;7472;45.396;5.272;2023-12-22T13:29:49;8.60;99.90
14761;DHT22;7472;45.396;5.272;2023-12-22T13:32:22;8.60;99.90
14761;DHT22;7472;45.396;5.272;2023-12-22T13:34:51;8.60;99.90
14761;DHT22;7472;45.396;5.272;2023-12-22T13:37:19;8.60;99.90
14761;DHT22;7472;45.396;5.272;2023-12-22T13:39:46;8.60;99.90
14761;DHT22;7472;45.396;5.272;2023-12-22T13:42:15;8.60;99.90
14761;DHT22;7472;45.396;5.272;2023-12-22T13:44:43;8.50;99.90
14761;DHT22;7472;45.396;5.272;2023-12-22T13:47:13;8.50;99.90
14761;DHT22;7472;45.396;5.272;2023-12-22T13:49:42;8.50;99.90
14761;DHT22;7472;45.396;5.272;2023-12-22T13:52:24;8.50;99.90
14761;DHT22;7472;45.396;5.272;2023-12-22T13:54:52;8.50;99.90
14761;DHT22;7472;45.396;5.272;2023-12-22T13:57:22;8.50;99.90
14761;DHT22;7472;45.396;5.272;2023-12-22T13:59:49;8.50;99.90
14761;DHT22;7472;45.396;5.272;2023-12-22T14:02:20;8.50;99.90
14761;DHT22;7472;45.396;5.272;2023-12-22T14:04:49;8.50;99.90
14761;DHT22;7472;45.396;5.272;2023-12-22T14:07:16;8.50;99.90
14761;DHT22;7472;45.396;5.272;2023-12-22T14:27:03;8.70;99.90
14761;DHT22;7472;45.396;5.272;2023-12-22T14:29:30;8.70;99.90
14761;DHT22;7472;45.396;5.272;2023-12-22T14:31:59;8.80;99.90
14761;DHT22;7472;45.396;5.272;2023-12-22T14:34:26;8.70;99.90
14761;DHT22;7472;45.396;5.272;2023-12-22T14:36:53;8.60;99.90
14761;DHT22;7472;45.396;5.272;2023-12-22T14:39:22;8.70;99.90
14761;DHT22;7472;45.396;5.272;2023-12-22T14:41:49;8.80;99.90
14761;DHT22;7472;45.396;5.272;2023-12-22T14:44:16;8.80;99.90
14761;DHT22;7472;45.396;5.272;2023-12-22T14:46:43;8.80;99.90
14761;DHT22;7472;45.396;5.272;2023-12-22T14:49:11;8.20;99.90
14761;DHT22;7472;45.396;5.272;2023-12-22T14:51:38;8.60;99.90
14761;DHT22;7472;45.396;5.272;2023-12-22T14:54:06;8.90;99.90
14761;DHT22;7472;45.396;5.272;2023-12-22T14:56:38;8.80;99.90
14761;DHT22;7472;45.396;5.272;2023-12-22T14:59:08;8.30;99.90
14761;DHT22;7472;45.396;5.272;2023-12-22T15:01:35;8.50;99.90
14761;DHT22;7472;45.396;5.272;2023-12-22T15:04:02;8.80;99.90
14761;DHT22;7472;45.396;5.272;2023-12-22T15:06:29;8.80;99.90
14761;DHT22;7472;45.396;5.272;2023-12-22T15:08:56;8.50;99.90
14761;DHT22;7472;45.396;5.272;2023-12-22T15:11:24;8.80;99.90
14761;DHT22;7472;45.396;5.272;2023-12-22T15:13:53;8.80;99.90
14761;DHT22;7472;45.396;5.272;2023-12-22T15:16:20;8.80;99.90
14761;DHT22;7472;45.396;5.272;2023-12-22T15:18:48;8.80;99.90
14761;DHT22;7472;45.396;5.272;2023-12-22T15:21:19;8.70;99.90
14761;DHT22;7472;45.396;5.272;2023-12-22T15:23:47;8.70;99.90
14761;DHT22;7472;45.396;5.272;2023-12-22T15:26:20;8.70;99.90
14761;DHT22;7472;45.396;5.272;2023-12-22T15:28:47;8.70;99.90
14761;DHT22;7472;45.396;5.272;2023-12-22T15:31:16;8.70;99.90
14761;DHT22;7472;45.396;5.272;2023-12-22T15:33:43;7.90;99.90
14761;DHT22;7472;45.396;5.272;2023-12-22T15:36:10;8.70;99.90
14761;DHT22;7472;45.396;5.272;2023-12-22T15:38:38;8.70;99.90
14761;DHT22;7472;45.396;5.272;2023-12-22T15:41:05;8.70;99.90
14761;DHT22;7472;45.396;5.272;2023-12-22T15:43:32;8.60;99.90
14761;DHT22;7472;45.396;5.272;2023-12-22T15:46:03;8.60;99.90
14761;DHT22;7472;45.396;5.272;2023-12-22T15:48:32;8.60;99.90
14761;DHT22;7472;45.396;5.272;2023-12-22T15:51:05;8.60;99.90
14761;DHT22;7472;45.396;5.272;2023-12-22T15:53:33;8.60;99.90
14761;DHT22;7472;45.396;5.272;2023-12-22T15:56:04;8.60;99.90
14761;DHT22;7472;45.396;5.272;2023-12-22T15:58:32;8.60;99.90
14761;DHT22;7472;45.396;5.272;2023-12-22T16:01:00;8.70;99.90
14761;DHT22;7472;45.396;5.272;2023-12-22T16:03:27;8.70;99.90
14761;DHT22;7472;45.396;5.272;2023-12-22T16:05:56;8.70;99.90
14761;DHT22;7472;45.396;5.272;2023-12-22T16:08:23;8.70;99.90
14761;DHT22;7472;45.396;5.272;2023-12-22T16:10:51;8.70;99.90
14761;DHT22;7472;45.396;5.272;2023-12-22T16:18:13;8.80;99.90
14761;DHT22;7472;45.396;5.272;2023-12-22T16:42:53;8.60;99.90
14761;DHT22;7472;45.396;5.272;2023-12-22T16:45:20;8.60;99.90
14761;DHT22;7472;45.396;5.272;2023-12-22T16:47:48;8.60;99.90
14761;DHT22;7472;45.396;5.272;2023-12-22T16:50:15;8.70;99.90
